createdAt,value
2023-03-06T00:01:03.900Z,5.79
2023-03-06T00:03:37.321Z,5.80
2023-03-06T00:06:10.140Z,5.78
2023-03-06T00:08:42.952Z,5.79
2023-03-06T00:11:16.125Z,5.78
2023-03-06T00:13:48.948Z,5.75
2023-03-06T00:16:23.208Z,5.76
2023-03-06T00:18:56.007Z,5.79
2023-03-06T00:21:28.792Z,5.77
2023-03-06T00:24:01.538Z,5.78
2023-03-06T00:26:35.693Z,5.81
2023-03-06T00:29:08.813Z,5.82
2023-03-06T00:31:46.445Z,5.83
2023-03-06T00:34:19.460Z,5.83
2023-03-06T00:36:52.150Z,5.86
2023-03-06T00:39:24.906Z,5.85
2023-03-06T00:41:57.637Z,5.86
2023-03-06T00:44:31.644Z,5.87
2023-03-06T00:47:06.076Z,5.86
2023-03-06T00:49:38.804Z,5.86
2023-03-06T00:52:11.545Z,5.86
2023-03-06T00:54:44.388Z,5.84
2023-03-06T00:57:17.061Z,5.83
2023-03-06T00:59:49.843Z,5.80
2023-03-06T01:02:24.041Z,5.78
2023-03-06T01:04:56.958Z,5.78
2023-03-06T01:07:33.367Z,5.75
2023-03-06T01:10:07.932Z,5.75
2023-03-06T01:12:40.672Z,5.73
2023-03-06T01:15:13.942Z,5.73
2023-03-06T01:17:48.047Z,5.68
2023-03-06T01:20:20.854Z,5.69
2023-03-06T01:22:54.628Z,5.68
2023-03-06T01:25:27.920Z,5.68
2023-03-06T01:28:00.628Z,5.66
2023-03-06T01:30:33.474Z,5.65
2023-03-06T01:33:07.641Z,5.65
2023-03-06T01:35:40.864Z,5.61
2023-03-06T01:38:13.891Z,5.59
2023-03-06T01:40:46.888Z,5.55
2023-03-06T01:43:30.096Z,5.51
2023-03-06T01:46:23.795Z,5.47
2023-03-06T01:48:59.506Z,5.40
2023-03-06T01:51:34.332Z,5.38
2023-03-06T01:54:10.089Z,5.33
2023-03-06T01:56:45.319Z,5.27
2023-03-06T01:59:18.247Z,5.20
2023-03-06T02:01:51.860Z,5.15
2023-03-06T02:04:26.331Z,5.08
2023-03-06T02:07:00.245Z,5.05
2023-03-06T02:09:34.232Z,4.97
2023-03-06T02:12:09.032Z,4.92
2023-03-06T02:14:42.143Z,4.84
2023-03-06T02:17:16.602Z,4.78
2023-03-06T02:19:54.675Z,4.75
2023-03-06T02:22:29.869Z,4.67
2023-03-06T02:25:06.030Z,4.65
2023-03-06T02:27:40.322Z,4.58
2023-03-06T02:30:14.383Z,4.54
2023-03-06T02:32:47.250Z,4.49
2023-03-06T02:35:21.508Z,4.45
2023-03-06T02:37:55.405Z,4.40
2023-03-06T02:40:28.242Z,4.34
2023-03-06T02:43:02.804Z,4.30
2023-03-06T02:45:37.194Z,4.24
2023-03-06T02:48:09.969Z,4.20
2023-03-06T02:50:43.662Z,4.15
2023-03-06T02:53:17.219Z,4.13
2023-03-06T02:55:51.540Z,4.10
2023-03-06T02:58:25.636Z,4.06
2023-03-06T03:00:58.484Z,4.04
2023-03-06T03:03:31.143Z,4.01
2023-03-06T03:06:05.282Z,3.98
2023-03-06T03:08:39.229Z,3.95
2023-03-06T03:11:12.748Z,3.92
2023-03-06T03:13:46.821Z,3.90
2023-03-06T03:16:19.799Z,3.90
2023-03-06T03:18:52.687Z,3.89
2023-03-06T03:21:25.365Z,3.88
2023-03-06T03:23:58.028Z,3.87
2023-03-06T03:26:30.716Z,3.87
2023-03-06T03:29:05.919Z,3.87
2023-03-06T03:31:38.712Z,3.88
2023-03-06T03:34:11.356Z,3.89
2023-03-06T03:36:44.054Z,3.90
2023-03-06T03:39:16.845Z,3.93
2023-03-06T03:41:49.813Z,3.95
2023-03-06T03:44:23.838Z,3.96
2023-03-06T03:46:56.467Z,3.99
2023-03-06T03:49:30.360Z,4.01
2023-03-06T03:52:03.359Z,4.04
2023-03-06T03:54:36.846Z,4.05
2023-03-06T03:57:09.598Z,4.07
2023-03-06T03:59:43.673Z,4.09
2023-03-06T04:02:17.114Z,4.10
2023-03-06T04:04:49.881Z,4.13
2023-03-06T04:07:22.650Z,4.13
2023-03-06T04:09:55.756Z,4.17
2023-03-06T04:12:28.446Z,4.20
2023-03-06T04:15:02.710Z,4.22
2023-03-06T04:17:35.663Z,4.26
2023-03-06T04:20:08.993Z,4.26
2023-03-06T04:22:41.681Z,4.29
2023-03-06T04:25:14.489Z,4.32
2023-03-06T04:27:47.151Z,4.35
2023-03-06T04:30:21.512Z,4.36
2023-03-06T04:32:54.217Z,4.40
2023-03-06T04:35:27.140Z,4.44
2023-03-06T04:37:59.922Z,4.46
2023-03-06T04:40:34.279Z,4.50
2023-03-06T04:43:07.098Z,4.52
2023-03-06T04:45:41.406Z,4.55
2023-03-06T04:48:14.453Z,4.57
2023-03-06T04:50:47.137Z,4.57
2023-03-06T04:53:21.395Z,4.60
2023-03-06T04:55:54.170Z,4.58
2023-03-06T04:58:27.035Z,4.58
2023-03-06T05:01:01.200Z,4.60
2023-03-06T05:03:34.067Z,4.59
2023-03-06T05:06:07.262Z,4.61
2023-03-06T05:08:40.150Z,4.62
2023-03-06T05:11:12.803Z,4.65
2023-03-06T05:13:45.945Z,4.69
2023-03-06T05:16:21.047Z,4.72
2023-03-06T05:18:53.791Z,4.74
2023-03-06T05:21:26.549Z,4.77
2023-03-06T05:23:59.442Z,4.78
2023-03-06T05:26:32.238Z,4.81
2023-03-06T05:29:05.159Z,4.83
2023-03-06T05:31:39.268Z,4.86
2023-03-06T05:34:14.098Z,4.90
2023-03-06T05:36:47.562Z,4.91
2023-03-06T05:39:20.452Z,4.94
2023-03-06T05:41:53.144Z,4.97
2023-03-06T05:44:26.262Z,4.97
2023-03-06T05:47:00.638Z,4.99
2023-03-06T05:49:33.906Z,5.00
2023-03-06T05:52:08.165Z,5.02
2023-03-06T05:54:40.921Z,5.05
2023-03-06T05:57:13.623Z,5.09
2023-03-06T05:59:46.511Z,5.10
2023-03-06T06:02:21.137Z,5.12
2023-03-06T06:04:53.946Z,5.16
2023-03-06T06:07:26.628Z,5.20
2023-03-06T06:09:59.353Z,5.21
2023-03-06T06:12:32.360Z,5.26
2023-03-06T06:15:06.633Z,5.29
2023-03-06T06:17:40.841Z,5.34
2023-03-06T06:20:14.382Z,5.37
2023-03-06T06:22:47.050Z,5.40
2023-03-06T06:25:19.988Z,5.45
2023-03-06T06:27:55.160Z,5.48
2023-03-06T06:30:27.881Z,5.51
2023-03-06T06:33:01.962Z,5.54
2023-03-06T06:35:36.577Z,5.59
2023-03-06T06:38:09.292Z,5.61
2023-03-06T06:40:41.979Z,5.66
2023-03-06T06:43:14.683Z,5.69
2023-03-06T06:45:49.565Z,5.74
2023-03-06T06:48:23.872Z,5.76
2023-03-06T06:50:56.962Z,5.83
2023-03-06T06:53:29.656Z,5.86
2023-03-06T06:56:02.440Z,5.89
2023-03-06T06:58:35.219Z,5.96
2023-03-06T07:01:08.374Z,6.01
2023-03-06T07:03:42.805Z,6.04
2023-03-06T07:06:15.886Z,6.09
2023-03-06T07:08:48.737Z,6.14
2023-03-06T07:11:21.509Z,6.18
2023-03-06T07:13:56.051Z,6.24
2023-03-06T07:16:28.958Z,6.29
2023-03-06T07:19:03.299Z,6.33
2023-03-06T07:21:36.144Z,6.36
2023-03-06T07:24:09.121Z,6.42
2023-03-06T07:26:41.753Z,6.47
2023-03-06T07:29:14.553Z,6.51
2023-03-06T07:31:47.274Z,6.55
2023-03-06T07:34:21.666Z,6.60
2023-03-06T07:36:54.528Z,6.66
2023-03-06T07:39:28.356Z,6.70
2023-03-06T07:42:01.268Z,6.75
2023-03-06T07:44:37.030Z,6.80
2023-03-06T07:47:09.749Z,6.87
2023-03-06T07:49:45.227Z,6.92
2023-03-06T07:52:18.248Z,6.97
2023-03-06T07:54:51.105Z,7.02
2023-03-06T07:57:23.735Z,7.09
2023-03-06T07:59:56.558Z,7.14
2023-03-06T08:02:29.376Z,7.20
2023-03-06T08:05:03.658Z,7.23
2023-03-06T08:07:36.795Z,7.29
2023-03-06T08:10:09.931Z,7.33
2023-03-06T08:12:42.630Z,7.40
2023-03-06T08:15:15.957Z,7.45
2023-03-06T08:17:49.134Z,7.51
2023-03-06T08:20:23.716Z,7.57
2023-03-06T08:22:56.445Z,7.66
2023-03-06T08:25:29.569Z,7.72
2023-03-06T08:28:02.440Z,7.78
2023-03-06T08:30:35.284Z,7.83
2023-03-06T08:33:08.483Z,7.89
2023-03-06T08:35:45.329Z,7.94
2023-03-06T08:38:18.010Z,7.99
2023-03-06T08:40:50.978Z,8.06
2023-03-06T08:43:23.985Z,8.12
2023-03-06T08:45:57.688Z,8.16
2023-03-06T08:48:30.474Z,8.22
2023-03-06T08:51:04.797Z,8.26
2023-03-06T08:53:43.406Z,8.32
2023-03-06T08:56:17.921Z,8.35
2023-03-06T08:58:51.019Z,8.41
2023-03-06T09:01:24.969Z,8.49
2023-03-06T09:03:59.091Z,8.55
2023-03-06T09:06:35.003Z,8.65
2023-03-06T09:09:09.180Z,8.77
2023-03-06T09:11:42.365Z,8.85
2023-03-06T09:14:15.344Z,8.96
2023-03-06T09:16:48.129Z,9.04
2023-03-06T09:19:21.022Z,9.12
2023-03-06T09:21:57.906Z,9.22
2023-03-06T09:24:31.081Z,9.31
2023-03-06T09:27:03.777Z,9.43
2023-03-06T09:29:36.513Z,9.59
2023-03-06T09:32:11.814Z,9.67
2023-03-06T09:34:44.903Z,9.81
2023-03-06T09:37:19.461Z,9.96
2023-03-06T09:39:52.123Z,10.08
2023-03-06T09:42:25.869Z,10.23
2023-03-06T09:45:00.501Z,10.36
2023-03-06T09:47:46.745Z,10.47
2023-03-06T09:50:30.711Z,10.63
2023-03-06T09:53:08.779Z,10.76
2023-03-06T09:55:44.171Z,10.88
2023-03-06T09:58:18.442Z,11.02
2023-03-06T10:00:56.728Z,11.14
2023-03-06T10:03:35.256Z,11.30
2023-03-06T10:06:11.504Z,11.41
2023-03-06T10:08:49.752Z,11.49
2023-03-06T10:11:26.434Z,11.61
2023-03-06T10:14:07.892Z,11.68
2023-03-06T10:16:41.364Z,11.75
2023-03-06T10:19:16.070Z,11.80
2023-03-06T10:21:56.040Z,11.86
2023-03-06T10:24:40.648Z,11.91
2023-03-06T10:27:17.296Z,11.97
2023-03-06T10:30:02.578Z,12.03
2023-03-06T10:32:48.917Z,12.09
2023-03-06T10:35:23.712Z,12.18
2023-03-06T10:38:06.563Z,12.26
2023-03-06T10:40:45.351Z,12.31
2023-03-06T10:43:18.135Z,12.37
2023-03-06T10:45:52.188Z,12.41
2023-03-06T10:48:26.046Z,12.45
2023-03-06T10:51:18.141Z,12.51
2023-03-06T10:53:53.376Z,12.58
2023-03-06T10:56:32.881Z,12.63
2023-03-06T10:59:06.941Z,12.66
2023-03-06T11:01:40.011Z,12.70
2023-03-06T11:04:16.771Z,12.69
2023-03-06T11:06:49.807Z,12.71
2023-03-06T11:09:23.642Z,12.68
2023-03-06T11:12:17.933Z,12.64
2023-03-06T11:15:05.676Z,12.61
2023-03-06T11:17:39.411Z,12.55
2023-03-06T11:20:23.053Z,12.46
2023-03-06T11:22:57.406Z,12.36
2023-03-06T11:25:33.483Z,12.30
2023-03-06T11:28:09.689Z,12.22
2023-03-06T11:30:44.226Z,12.20
2023-03-06T11:33:20.755Z,12.17
2023-03-06T11:35:57.908Z,12.19
2023-03-06T11:38:36.851Z,12.19
2023-03-06T11:41:14.692Z,12.22
2023-03-06T11:43:52.360Z,12.25
2023-03-06T11:46:28.612Z,12.26
2023-03-06T11:49:05.180Z,12.29
2023-03-06T11:51:41.625Z,12.30
2023-03-06T11:54:14.876Z,12.33
2023-03-06T11:56:52.625Z,12.34
2023-03-06T11:59:36.270Z,12.37
2023-03-06T12:02:20.280Z,12.39
2023-03-06T12:04:57.844Z,12.43
2023-03-06T12:07:34.169Z,12.45
2023-03-06T12:10:12.397Z,12.44
2023-03-06T12:13:05.641Z,12.42
2023-03-06T12:15:54.214Z,12.37
2023-03-06T12:18:36.739Z,12.30
2023-03-06T12:21:14.056Z,12.25
2023-03-06T12:23:55.130Z,12.20
2023-03-06T12:26:36.150Z,12.19
2023-03-06T12:29:17.959Z,12.17
2023-03-06T12:31:57.932Z,12.15
2023-03-06T12:34:34.864Z,12.14
2023-03-06T12:37:13.387Z,12.12
2023-03-06T12:39:54.156Z,12.08
2023-03-06T12:42:39.397Z,12.06
2023-03-06T12:45:20.824Z,12.04
2023-03-06T12:47:56.813Z,12.01
2023-03-06T12:50:30.774Z,11.99
2023-03-06T12:53:04.419Z,11.94
2023-03-06T12:55:40.209Z,11.91
2023-03-06T12:58:31.641Z,11.86
2023-03-06T13:01:06.655Z,11.80
2023-03-06T13:03:53.019Z,11.75
2023-03-06T13:06:44.936Z,11.71
2023-03-06T13:09:29.924Z,11.69
2023-03-06T13:12:19.230Z,11.66
2023-03-06T13:14:56.279Z,11.67
2023-03-06T13:17:33.835Z,11.67
2023-03-06T13:20:35.144Z,11.68
2023-03-06T13:23:26.616Z,11.70
2023-03-06T13:26:01.145Z,11.70
2023-03-06T13:28:41.385Z,11.69
2023-03-06T13:31:26.449Z,11.66
2023-03-06T13:34:00.682Z,11.66
2023-03-06T13:36:34.193Z,11.65
2023-03-06T13:39:08.747Z,11.62
2023-03-06T13:41:59.643Z,11.61
2023-03-06T13:44:47.480Z,11.58
2023-03-06T13:47:26.435Z,11.56
2023-03-06T13:49:59.817Z,11.58
2023-03-06T13:52:36.771Z,11.57
2023-03-06T13:55:18.106Z,11.61
2023-03-06T13:58:00.758Z,11.65
2023-03-06T14:00:40.969Z,11.67
2023-03-06T14:03:28.540Z,11.69
2023-03-06T14:06:01.446Z,11.73
2023-03-06T14:08:34.925Z,11.73
2023-03-06T14:11:16.832Z,11.76
2023-03-06T14:13:53.557Z,11.75
2023-03-06T14:16:30.790Z,11.73
2023-03-06T14:19:16.666Z,11.74
2023-03-06T14:21:50.408Z,11.71
2023-03-06T14:24:30.356Z,11.68
2023-03-06T14:27:03.180Z,11.66
2023-03-06T14:29:37.277Z,11.64
2023-03-06T14:32:12.214Z,11.63
2023-03-06T14:34:46.708Z,11.59
2023-03-06T14:37:21.243Z,11.56
2023-03-06T14:39:56.413Z,11.53
2023-03-06T14:42:30.309Z,11.46
2023-03-06T14:45:08.459Z,11.42
2023-03-06T14:47:41.659Z,11.38
2023-03-06T14:50:23.187Z,11.34
2023-03-06T14:52:57.509Z,11.32
2023-03-06T14:55:30.873Z,11.28
2023-03-06T14:58:05.782Z,11.24
2023-03-06T15:00:41.767Z,11.21
2023-03-06T15:03:17.698Z,11.16
2023-03-06T15:05:50.958Z,11.14
2023-03-06T15:08:26.521Z,11.12
2023-03-06T15:11:00.321Z,11.08
2023-03-06T15:13:33.934Z,11.05
2023-03-06T15:16:09.426Z,11.03
2023-03-06T15:18:55.226Z,11.01
2023-03-06T15:21:29.054Z,10.95
2023-03-06T15:24:01.802Z,10.93
2023-03-06T15:26:36.764Z,10.91
2023-03-06T15:29:23.110Z,10.89
2023-03-06T15:32:10.941Z,10.88
2023-03-06T15:34:45.103Z,10.84
2023-03-06T15:37:21.134Z,10.82
2023-03-06T15:40:04.149Z,10.80
2023-03-06T15:42:37.289Z,10.78
2023-03-06T15:45:15.927Z,10.76
2023-03-06T15:47:50.288Z,10.74
2023-03-06T15:50:25.566Z,10.70
2023-03-06T15:52:58.237Z,10.67
2023-03-06T15:55:30.979Z,10.66
2023-03-06T15:58:04.889Z,10.63
2023-03-06T16:00:38.543Z,10.60
2023-03-06T16:03:11.526Z,10.57
2023-03-06T16:05:46.229Z,10.55
2023-03-06T16:08:19.186Z,10.54
2023-03-06T16:10:52.577Z,10.53
2023-03-06T16:13:27.647Z,10.50
2023-03-06T16:16:00.411Z,10.48
2023-03-06T16:18:33.096Z,10.47
2023-03-06T16:21:07.667Z,10.46
2023-03-06T16:23:41.055Z,10.44
2023-03-06T16:26:19.104Z,10.41
2023-03-06T16:28:51.775Z,10.39
2023-03-06T16:31:24.691Z,10.35
2023-03-06T16:33:57.338Z,10.33
2023-03-06T16:36:31.856Z,10.30
2023-03-06T16:39:05.315Z,10.27
2023-03-06T16:41:38.063Z,10.25
2023-03-06T16:44:11.430Z,10.21
2023-03-06T16:46:47.077Z,10.18
2023-03-06T16:49:21.096Z,10.16
2023-03-06T16:51:56.352Z,10.12
2023-03-06T16:54:29.040Z,10.11
2023-03-06T16:57:01.847Z,10.06
2023-03-06T16:59:34.478Z,10.03
2023-03-06T17:02:07.654Z,10.01
2023-03-06T17:04:40.251Z,9.99
2023-03-06T17:07:14.378Z,9.94
2023-03-06T17:09:47.033Z,9.91
2023-03-06T17:12:19.928Z,9.87
2023-03-06T17:14:53.216Z,9.85
2023-03-06T17:17:26.012Z,9.82
2023-03-06T17:19:58.905Z,9.79
2023-03-06T17:22:33.465Z,9.76
2023-03-06T17:25:07.350Z,9.73
2023-03-06T17:27:40.273Z,9.69
2023-03-06T17:30:13.548Z,9.69
2023-03-06T17:32:46.382Z,9.63
2023-03-06T17:35:19.247Z,9.61
2023-03-06T17:37:53.627Z,9.59
2023-03-06T17:40:26.554Z,9.56
2023-03-06T17:42:59.499Z,9.53
2023-03-06T17:45:34.272Z,9.51
2023-03-06T17:48:07.037Z,9.49
2023-03-06T17:50:39.889Z,9.48
2023-03-06T17:53:14.517Z,9.45
2023-03-06T17:55:47.262Z,9.43
2023-03-06T17:58:20.580Z,9.41
2023-03-06T18:00:53.557Z,9.39
2023-03-06T18:03:26.437Z,9.38
2023-03-06T18:06:00.067Z,9.37
2023-03-06T18:08:34.614Z,9.34
2023-03-06T18:11:08.127Z,9.33
2023-03-06T18:13:41.589Z,9.31
2023-03-06T18:16:15.353Z,9.31
2023-03-06T18:18:48.979Z,9.28
2023-03-06T18:21:22.108Z,9.28
2023-03-06T18:23:58.445Z,9.26
2023-03-06T18:26:31.466Z,9.24
2023-03-06T18:29:05.153Z,9.22
2023-03-06T18:31:38.878Z,9.20
2023-03-06T18:34:12.680Z,9.20
2023-03-06T18:36:47.232Z,9.18
2023-03-06T18:39:22.522Z,9.16
2023-03-06T18:41:55.989Z,9.14
2023-03-06T18:44:28.730Z,9.12
2023-03-06T18:47:03.687Z,9.12
2023-03-06T18:49:38.479Z,9.09
2023-03-06T18:52:17.767Z,9.08
2023-03-06T18:54:52.066Z,9.07
2023-03-06T18:57:24.743Z,9.04
2023-03-06T18:59:57.547Z,9.03
2023-03-06T19:02:30.280Z,8.99
2023-03-06T19:05:03.100Z,8.99
2023-03-06T19:07:35.758Z,8.97
2023-03-06T19:10:11.071Z,8.95
2023-03-06T19:12:43.723Z,8.95
2023-03-06T19:15:16.576Z,8.95
2023-03-06T19:17:51.437Z,8.94
2023-03-06T19:20:24.456Z,8.93
2023-03-06T19:22:57.174Z,8.90
2023-03-06T19:25:31.278Z,8.89
2023-03-06T19:28:04.063Z,8.89
2023-03-06T19:30:36.837Z,8.87
2023-03-06T19:33:09.560Z,8.88
2023-03-06T19:35:42.583Z,8.88
2023-03-06T19:38:15.653Z,8.84
2023-03-06T19:40:52.973Z,8.86
2023-03-06T19:43:26.177Z,8.86
2023-03-06T19:46:00.815Z,8.86
2023-03-06T19:48:33.669Z,8.83
2023-03-06T19:51:06.766Z,8.85
2023-03-06T19:53:40.050Z,8.85
2023-03-06T19:56:15.918Z,8.82
2023-03-06T19:58:48.933Z,8.81
2023-03-06T20:01:23.137Z,8.81
2023-03-06T20:03:58.781Z,8.81
2023-03-06T20:06:33.756Z,8.80
2023-03-06T20:09:07.819Z,8.77
2023-03-06T20:11:41.977Z,8.78
2023-03-06T20:14:14.710Z,8.76
2023-03-06T20:16:47.438Z,8.75
2023-03-06T20:19:21.851Z,8.75
2023-03-06T20:21:55.945Z,8.73
2023-03-06T20:24:28.698Z,8.72
2023-03-06T20:27:03.458Z,8.70
2023-03-06T20:29:36.314Z,8.67
2023-03-06T20:32:09.123Z,8.66
2023-03-06T20:34:41.882Z,8.65
2023-03-06T20:37:14.691Z,8.64
2023-03-06T20:39:47.875Z,8.64
2023-03-06T20:42:22.027Z,8.63
2023-03-06T20:44:54.787Z,8.64
2023-03-06T20:47:28.074Z,8.61
2023-03-06T20:50:01.437Z,8.59
2023-03-06T20:52:34.870Z,8.59
2023-03-06T20:55:08.013Z,8.60
2023-03-06T20:57:42.184Z,8.59
2023-03-06T21:00:15.221Z,8.58
2023-03-06T21:02:48.046Z,8.59
2023-03-06T21:05:20.778Z,8.56
2023-03-06T21:07:53.517Z,8.56
2023-03-06T21:10:26.294Z,8.56
2023-03-06T21:13:00.479Z,8.55
2023-03-06T21:15:33.381Z,8.56
2023-03-06T21:18:06.343Z,8.56
2023-03-06T21:20:39.361Z,8.55
2023-03-06T21:23:12.234Z,8.56
2023-03-06T21:25:48.759Z,8.56
2023-03-06T21:28:23.216Z,8.55
2023-03-06T21:30:55.940Z,8.58
2023-03-06T21:33:28.946Z,8.57
2023-03-06T21:36:01.891Z,8.57
2023-03-06T21:38:34.693Z,8.59
2023-03-06T21:41:07.940Z,8.58
2023-03-06T21:43:42.860Z,8.57
2023-03-06T21:46:16.108Z,8.59
2023-03-06T21:48:48.861Z,8.59
2023-03-06T21:51:23.467Z,8.59
2023-03-06T21:53:56.262Z,8.59
2023-03-06T21:56:29.075Z,8.58
2023-03-06T21:59:03.224Z,8.58
2023-03-06T22:01:35.989Z,8.57
2023-03-06T22:04:08.683Z,8.57
2023-03-06T22:06:41.430Z,8.55
2023-03-06T22:09:17.283Z,8.54
2023-03-06T22:11:49.964Z,8.54
2023-03-06T22:14:24.199Z,8.53
2023-03-06T22:16:58.019Z,8.53
2023-03-06T22:19:30.815Z,8.53
2023-03-06T22:22:03.933Z,8.51
2023-03-06T22:24:36.662Z,8.51
2023-03-06T22:27:09.744Z,8.51
2023-03-06T22:29:43.797Z,8.49
2023-03-06T22:32:16.810Z,8.48
2023-03-06T22:34:50.951Z,8.47
2023-03-06T22:37:23.628Z,8.46
2023-03-06T22:39:56.332Z,8.45
2023-03-06T22:42:29.078Z,8.46
2023-03-06T22:45:03.121Z,8.44
2023-03-06T22:47:36.786Z,8.46
2023-03-06T22:50:10.968Z,8.44
2023-03-06T22:52:43.699Z,8.45
2023-03-06T22:55:16.730Z,8.45
2023-03-06T22:57:49.377Z,8.43
2023-03-06T23:00:23.579Z,8.43
2023-03-06T23:02:56.280Z,8.43
2023-03-06T23:05:29.772Z,8.43
2023-03-06T23:08:02.396Z,8.41
2023-03-06T23:10:37.586Z,8.42
2023-03-06T23:13:10.266Z,8.42
2023-03-06T23:15:44.419Z,8.42
2023-03-06T23:18:17.244Z,8.42
2023-03-06T23:20:49.911Z,8.42
2023-03-06T23:23:23.206Z,8.41
2023-03-06T23:25:59.377Z,8.41
2023-03-06T23:28:32.163Z,8.40
2023-03-06T23:31:09.198Z,8.39
2023-03-06T23:33:42.595Z,8.39
2023-03-06T23:36:16.276Z,8.40
2023-03-06T23:38:49.146Z,8.38
2023-03-06T23:41:22.276Z,8.36
2023-03-06T23:43:55.478Z,8.36
2023-03-06T23:46:29.617Z,8.35
2023-03-06T23:49:02.247Z,8.35
2023-03-06T23:51:34.965Z,8.33
2023-03-06T23:54:08.079Z,8.34
2023-03-06T23:56:40.793Z,8.35
2023-03-06T23:59:13.512Z,8.32
